sensor_id;sensor_type;location;lat;lon;timestamp;P1;durP1;ratioP1;P2;durP2;ratioP2
50858;SDS011;36826;47.514;19.056;2022-10-18T00:00:40;5.95;;;4.20;;
50858;SDS011;36826;47.514;19.056;2022-10-18T00:03:05;7.65;;;4.18;;
50858;SDS011;36826;47.514;19.056;2022-10-18T00:05:31;6.22;;;4.07;;
50858;SDS011;36826;47.514;19.056;2022-10-18T00:07:56;6.53;;;4.18;;
50858;SDS011;36826;47.514;19.056;2022-10-18T00:10:22;7.53;;;4.57;;
50858;SDS011;36826;47.514;19.056;2022-10-18T00:12:51;6.57;;;4.10;;
50858;SDS011;36826;47.514;19.056;2022-10-18T00:15:17;6.97;;;4.45;;
50858;SDS011;36826;47.514;19.056;2022-10-18T00:17:42;7.60;;;4.18;;
50858;SDS011;36826;47.514;19.056;2022-10-18T00:20:08;6.68;;;4.35;;
50858;SDS011;36826;47.514;19.056;2022-10-18T00:22:35;7.70;;;4.07;;
50858;SDS011;36826;47.514;19.056;2022-10-18T00:25:02;6.18;;;4.05;;
50858;SDS011;36826;47.514;19.056;2022-10-18T00:27:29;6.63;;;4.33;;
50858;SDS011;36826;47.514;19.056;2022-10-18T00:29:55;6.20;;;4.18;;
50858;SDS011;36826;47.514;19.056;2022-10-18T00:32:21;6.18;;;3.83;;
50858;SDS011;36826;47.514;19.056;2022-10-18T00:34:46;5.78;;;4.15;;
50858;SDS011;36826;47.514;19.056;2022-10-18T00:37:12;7.32;;;4.32;;
50858;SDS011;36826;47.514;19.056;2022-10-18T00:39:37;5.00;;;3.85;;
50858;SDS011;36826;47.514;19.056;2022-10-18T00:42:03;6.88;;;3.92;;
50858;SDS011;36826;47.514;19.056;2022-10-18T00:47:05;5.78;;;3.85;;
50858;SDS011;36826;47.514;19.056;2022-10-18T00:49:34;6.22;;;4.00;;
50858;SDS011;36826;47.514;19.056;2022-10-18T00:52:16;6.15;;;3.55;;
50858;SDS011;36826;47.514;19.056;2022-10-18T00:54:48;6.15;;;3.95;;
50858;SDS011;36826;47.514;19.056;2022-10-18T00:59:41;5.82;;;3.67;;
50858;SDS011;36826;47.514;19.056;2022-10-18T01:02:07;6.18;;;3.90;;
50858;SDS011;36826;47.514;19.056;2022-10-18T01:04:33;5.10;;;3.47;;
50858;SDS011;36826;47.514;19.056;2022-10-18T01:07:24;5.50;;;3.80;;
50858;SDS011;36826;47.514;19.056;2022-10-18T01:23:12;5.70;;;3.80;;
50858;SDS011;36826;47.514;19.056;2022-10-18T01:25:49;5.85;;;3.75;;
50858;SDS011;36826;47.514;19.056;2022-10-18T01:31:19;5.05;;;3.78;;
50858;SDS011;36826;47.514;19.056;2022-10-18T01:33:57;5.45;;;3.75;;
50858;SDS011;36826;47.514;19.056;2022-10-18T01:36:27;5.43;;;3.80;;
50858;SDS011;36826;47.514;19.056;2022-10-18T01:38:57;5.38;;;3.42;;
50858;SDS011;36826;47.514;19.056;2022-10-18T01:41:26;5.47;;;3.90;;
50858;SDS011;36826;47.514;19.056;2022-10-18T01:43:55;4.63;;;3.50;;
50858;SDS011;36826;47.514;19.056;2022-10-18T01:46:24;5.40;;;3.67;;
50858;SDS011;36826;47.514;19.056;2022-10-18T01:48:50;5.05;;;3.25;;
50858;SDS011;36826;47.514;19.056;2022-10-18T01:51:28;4.78;;;3.50;;
50858;SDS011;36826;47.514;19.056;2022-10-18T01:53:55;5.82;;;3.47;;
50858;SDS011;36826;47.514;19.056;2022-10-18T02:04:06;4.72;;;3.40;;
50858;SDS011;36826;47.514;19.056;2022-10-18T02:06:46;4.85;;;3.60;;
50858;SDS011;36826;47.514;19.056;2022-10-18T02:09:18;4.68;;;3.38;;
50858;SDS011;36826;47.514;19.056;2022-10-18T02:11:47;4.95;;;3.47;;
50858;SDS011;36826;47.514;19.056;2022-10-18T02:14:18;4.68;;;3.63;;
50858;SDS011;36826;47.514;19.056;2022-10-18T02:16:49;4.23;;;3.43;;
50858;SDS011;36826;47.514;19.056;2022-10-18T02:19:23;6.88;;;3.45;;
50858;SDS011;36826;47.514;19.056;2022-10-18T02:21:52;6.30;;;3.70;;
50858;SDS011;36826;47.514;19.056;2022-10-18T02:24:20;5.15;;;3.45;;
50858;SDS011;36826;47.514;19.056;2022-10-18T02:26:50;4.43;;;3.35;;
50858;SDS011;36826;47.514;19.056;2022-10-18T02:29:15;5.35;;;3.33;;
50858;SDS011;36826;47.514;19.056;2022-10-18T02:31:48;6.00;;;3.50;;
50858;SDS011;36826;47.514;19.056;2022-10-18T02:36:50;5.88;;;3.40;;
50858;SDS011;36826;47.514;19.056;2022-10-18T02:39:29;4.47;;;3.40;;
50858;SDS011;36826;47.514;19.056;2022-10-18T02:42:00;4.68;;;3.30;;
50858;SDS011;36826;47.514;19.056;2022-10-18T02:44:30;5.05;;;3.30;;
50858;SDS011;36826;47.514;19.056;2022-10-18T02:46:56;5.68;;;3.50;;
50858;SDS011;36826;47.514;19.056;2022-10-18T02:49:21;4.60;;;3.40;;
50858;SDS011;36826;47.514;19.056;2022-10-18T02:51:47;3.83;;;3.10;;
50858;SDS011;36826;47.514;19.056;2022-10-18T02:54:12;5.00;;;3.20;;
50858;SDS011;36826;47.514;19.056;2022-10-18T02:56:37;5.45;;;3.60;;
50858;SDS011;36826;47.514;19.056;2022-10-18T02:59:03;4.13;;;3.30;;
50858;SDS011;36826;47.514;19.056;2022-10-18T03:03:57;4.38;;;3.08;;
50858;SDS011;36826;47.514;19.056;2022-10-18T03:06:22;4.75;;;3.50;;
50858;SDS011;36826;47.514;19.056;2022-10-18T03:08:47;4.78;;;3.08;;
50858;SDS011;36826;47.514;19.056;2022-10-18T03:11:13;5.43;;;3.00;;
50858;SDS011;36826;47.514;19.056;2022-10-18T03:13:38;4.53;;;3.15;;
50858;SDS011;36826;47.514;19.056;2022-10-18T03:16:04;4.68;;;2.72;;
50858;SDS011;36826;47.514;19.056;2022-10-18T03:18:29;4.60;;;3.40;;
50858;SDS011;36826;47.514;19.056;2022-10-18T03:20:54;3.85;;;3.00;;
50858;SDS011;36826;47.514;19.056;2022-10-18T03:23:20;5.70;;;3.40;;
50858;SDS011;36826;47.514;19.056;2022-10-18T03:25:45;4.57;;;3.03;;
50858;SDS011;36826;47.514;19.056;2022-10-18T03:28:11;4.05;;;2.92;;
50858;SDS011;36826;47.514;19.056;2022-10-18T03:30:36;3.90;;;2.92;;
50858;SDS011;36826;47.514;19.056;2022-10-18T03:33:03;4.65;;;3.38;;
50858;SDS011;36826;47.514;19.056;2022-10-18T03:35:29;4.93;;;2.95;;
50858;SDS011;36826;47.514;19.056;2022-10-18T03:37:55;3.90;;;3.30;;
50858;SDS011;36826;47.514;19.056;2022-10-18T03:40:20;3.75;;;2.88;;
50858;SDS011;36826;47.514;19.056;2022-10-18T03:42:45;4.75;;;3.08;;
50858;SDS011;36826;47.514;19.056;2022-10-18T03:45:11;4.10;;;2.80;;
50858;SDS011;36826;47.514;19.056;2022-10-18T03:47:36;4.50;;;2.92;;
50858;SDS011;36826;47.514;19.056;2022-10-18T03:50:02;4.15;;;2.70;;
50858;SDS011;36826;47.514;19.056;2022-10-18T03:52:28;4.72;;;3.20;;
50858;SDS011;36826;47.514;19.056;2022-10-18T03:54:53;4.53;;;2.72;;
50858;SDS011;36826;47.514;19.056;2022-10-18T03:57:19;4.53;;;2.92;;
50858;SDS011;36826;47.514;19.056;2022-10-18T03:59:44;6.53;;;2.88;;
50858;SDS011;36826;47.514;19.056;2022-10-18T04:02:09;5.05;;;3.00;;
50858;SDS011;36826;47.514;19.056;2022-10-18T04:04:35;3.63;;;2.80;;
50858;SDS011;36826;47.514;19.056;2022-10-18T04:07:00;3.65;;;2.90;;
50858;SDS011;36826;47.514;19.056;2022-10-18T04:09:26;6.15;;;3.08;;
50858;SDS011;36826;47.514;19.056;2022-10-18T04:11:51;5.05;;;3.17;;
50858;SDS011;36826;47.514;19.056;2022-10-18T04:14:17;8.77;;;2.83;;
50858;SDS011;36826;47.514;19.056;2022-10-18T04:16:45;9.32;;;2.72;;
50858;SDS011;36826;47.514;19.056;2022-10-18T04:19:10;6.50;;;2.95;;
50858;SDS011;36826;47.514;19.056;2022-10-18T04:21:36;8.00;;;3.05;;
50858;SDS011;36826;47.514;19.056;2022-10-18T04:24:01;9.88;;;2.90;;
50858;SDS011;36826;47.514;19.056;2022-10-18T04:26:27;7.82;;;2.95;;
50858;SDS011;36826;47.514;19.056;2022-10-18T04:28:52;7.88;;;3.05;;
50858;SDS011;36826;47.514;19.056;2022-10-18T04:31:17;7.03;;;2.80;;
50858;SDS011;36826;47.514;19.056;2022-10-18T04:33:43;6.53;;;2.95;;
50858;SDS011;36826;47.514;19.056;2022-10-18T04:36:08;8.75;;;3.10;;
50858;SDS011;36826;47.514;19.056;2022-10-18T04:38:34;6.03;;;3.13;;
50858;SDS011;36826;47.514;19.056;2022-10-18T04:40:59;4.25;;;3.13;;
50858;SDS011;36826;47.514;19.056;2022-10-18T04:43:25;5.80;;;2.90;;
50858;SDS011;36826;47.514;19.056;2022-10-18T04:45:50;4.45;;;2.97;;
50858;SDS011;36826;47.514;19.056;2022-10-18T04:48:16;6.25;;;2.85;;
50858;SDS011;36826;47.514;19.056;2022-10-18T04:50:41;8.10;;;3.03;;
50858;SDS011;36826;47.514;19.056;2022-10-18T04:53:07;6.05;;;3.08;;
50858;SDS011;36826;47.514;19.056;2022-10-18T04:55:33;6.68;;;3.10;;
50858;SDS011;36826;47.514;19.056;2022-10-18T04:57:58;7.30;;;3.42;;
50858;SDS011;36826;47.514;19.056;2022-10-18T05:00:23;5.40;;;3.47;;
50858;SDS011;36826;47.514;19.056;2022-10-18T05:02:49;5.80;;;3.22;;
50858;SDS011;36826;47.514;19.056;2022-10-18T05:05:19;8.27;;;3.60;;
50858;SDS011;36826;47.514;19.056;2022-10-18T05:07:44;6.68;;;3.40;;
50858;SDS011;36826;47.514;19.056;2022-10-18T05:10:10;8.75;;;3.40;;
50858;SDS011;36826;47.514;19.056;2022-10-18T05:12:35;9.95;;;3.17;;
50858;SDS011;36826;47.514;19.056;2022-10-18T05:15:01;8.52;;;3.60;;
50858;SDS011;36826;47.514;19.056;2022-10-18T05:17:26;12.43;;;3.97;;
50858;SDS011;36826;47.514;19.056;2022-10-18T05:19:52;13.43;;;4.18;;
50858;SDS011;36826;47.514;19.056;2022-10-18T05:22:17;9.48;;;4.22;;
50858;SDS011;36826;47.514;19.056;2022-10-18T05:24:42;10.95;;;4.00;;
50858;SDS011;36826;47.514;19.056;2022-10-18T05:27:08;9.18;;;4.20;;
50858;SDS011;36826;47.514;19.056;2022-10-18T05:29:35;11.13;;;4.50;;
50858;SDS011;36826;47.514;19.056;2022-10-18T05:32:00;8.88;;;3.80;;
50858;SDS011;36826;47.514;19.056;2022-10-18T05:34:25;7.47;;;3.83;;
50858;SDS011;36826;47.514;19.056;2022-10-18T05:36:51;16.98;;;3.92;;
50858;SDS011;36826;47.514;19.056;2022-10-18T05:39:17;10.18;;;4.30;;
50858;SDS011;36826;47.514;19.056;2022-10-18T05:41:42;11.52;;;3.90;;
50858;SDS011;36826;47.514;19.056;2022-10-18T05:44:08;11.45;;;4.25;;
50858;SDS011;36826;47.514;19.056;2022-10-18T05:46:33;9.90;;;4.03;;
50858;SDS011;36826;47.514;19.056;2022-10-18T05:48:58;10.73;;;4.20;;
50858;SDS011;36826;47.514;19.056;2022-10-18T05:51:24;11.85;;;4.22;;
50858;SDS011;36826;47.514;19.056;2022-10-18T05:53:49;8.75;;;4.10;;
50858;SDS011;36826;47.514;19.056;2022-10-18T05:56:15;10.98;;;4.32;;
50858;SDS011;36826;47.514;19.056;2022-10-18T05:58:41;7.28;;;3.53;;
50858;SDS011;36826;47.514;19.056;2022-10-18T06:01:07;10.25;;;3.95;;
50858;SDS011;36826;47.514;19.056;2022-10-18T06:03:34;10.90;;;4.10;;
50858;SDS011;36826;47.514;19.056;2022-10-18T06:06:03;12.90;;;4.28;;
50858;SDS011;36826;47.514;19.056;2022-10-18T06:08:30;7.70;;;3.78;;
50858;SDS011;36826;47.514;19.056;2022-10-18T06:10:56;7.32;;;3.90;;
50858;SDS011;36826;47.514;19.056;2022-10-18T06:13:21;9.48;;;4.10;;
50858;SDS011;36826;47.514;19.056;2022-10-18T06:15:47;7.28;;;3.78;;
50858;SDS011;36826;47.514;19.056;2022-10-18T06:18:12;7.75;;;3.60;;
50858;SDS011;36826;47.514;19.056;2022-10-18T06:20:38;6.90;;;4.18;;
50858;SDS011;36826;47.514;19.056;2022-10-18T06:23:03;8.25;;;3.75;;
50858;SDS011;36826;47.514;19.056;2022-10-18T06:25:28;8.98;;;3.80;;
50858;SDS011;36826;47.514;19.056;2022-10-18T06:27:54;8.38;;;3.65;;
50858;SDS011;36826;47.514;19.056;2022-10-18T06:30:19;7.50;;;3.47;;
50858;SDS011;36826;47.514;19.056;2022-10-18T06:32:45;7.43;;;3.60;;
50858;SDS011;36826;47.514;19.056;2022-10-18T06:35:10;6.90;;;3.47;;
50858;SDS011;36826;47.514;19.056;2022-10-18T06:37:35;8.60;;;3.42;;
50858;SDS011;36826;47.514;19.056;2022-10-18T06:40:02;6.57;;;3.88;;
50858;SDS011;36826;47.514;19.056;2022-10-18T06:42:28;6.90;;;3.58;;
50858;SDS011;36826;47.514;19.056;2022-10-18T06:44:53;7.43;;;3.63;;
50858;SDS011;36826;47.514;19.056;2022-10-18T06:47:19;12.55;;;4.43;;
50858;SDS011;36826;47.514;19.056;2022-10-18T06:49:44;6.65;;;3.42;;
50858;SDS011;36826;47.514;19.056;2022-10-18T06:52:09;6.28;;;3.42;;
50858;SDS011;36826;47.514;19.056;2022-10-18T06:54:35;6.65;;;3.40;;
50858;SDS011;36826;47.514;19.056;2022-10-18T06:57:01;4.32;;;3.30;;
50858;SDS011;36826;47.514;19.056;2022-10-18T06:59:27;8.88;;;3.58;;
50858;SDS011;36826;47.514;19.056;2022-10-18T07:01:53;5.93;;;3.60;;
50858;SDS011;36826;47.514;19.056;2022-10-18T07:04:18;9.63;;;3.63;;
50858;SDS011;36826;47.514;19.056;2022-10-18T07:06:44;7.20;;;3.20;;
50858;SDS011;36826;47.514;19.056;2022-10-18T07:09:09;6.72;;;3.38;;
50858;SDS011;36826;47.514;19.056;2022-10-18T07:11:35;6.55;;;3.20;;
50858;SDS011;36826;47.514;19.056;2022-10-18T07:14:01;6.18;;;3.40;;
50858;SDS011;36826;47.514;19.056;2022-10-18T07:18:54;6.07;;;3.13;;
50858;SDS011;36826;47.514;19.056;2022-10-18T07:21:21;6.05;;;3.30;;
50858;SDS011;36826;47.514;19.056;2022-10-18T07:23:48;6.93;;;3.20;;
50858;SDS011;36826;47.514;19.056;2022-10-18T07:26:27;6.82;;;3.50;;
50858;SDS011;36826;47.514;19.056;2022-10-18T07:28:56;4.53;;;2.97;;
50858;SDS011;36826;47.514;19.056;2022-10-18T07:31:32;7.45;;;3.53;;
50858;SDS011;36826;47.514;19.056;2022-10-18T07:33:58;5.90;;;3.47;;
50858;SDS011;36826;47.514;19.056;2022-10-18T07:36:24;6.50;;;3.30;;
50858;SDS011;36826;47.514;19.056;2022-10-18T07:38:50;6.95;;;3.30;;
50858;SDS011;36826;47.514;19.056;2022-10-18T07:41:16;6.00;;;3.30;;
50858;SDS011;36826;47.514;19.056;2022-10-18T07:43:42;6.07;;;3.35;;
50858;SDS011;36826;47.514;19.056;2022-10-18T07:46:10;8.68;;;3.60;;
50858;SDS011;36826;47.514;19.056;2022-10-18T07:48:36;6.35;;;3.25;;
50858;SDS011;36826;47.514;19.056;2022-10-18T07:51:01;7.00;;;3.50;;
50858;SDS011;36826;47.514;19.056;2022-10-18T07:53:28;9.45;;;4.85;;
50858;SDS011;36826;47.514;19.056;2022-10-18T07:55:57;7.75;;;4.53;;
50858;SDS011;36826;47.514;19.056;2022-10-18T07:58:24;8.40;;;4.90;;
50858;SDS011;36826;47.514;19.056;2022-10-18T08:00:50;10.40;;;5.80;;
50858;SDS011;36826;47.514;19.056;2022-10-18T08:03:15;14.30;;;6.80;;
50858;SDS011;36826;47.514;19.056;2022-10-18T08:05:40;13.57;;;7.95;;
50858;SDS011;36826;47.514;19.056;2022-10-18T08:08:06;19.63;;;9.23;;
50858;SDS011;36826;47.514;19.056;2022-10-18T08:10:33;12.07;;;9.13;;
50858;SDS011;36826;47.514;19.056;2022-10-18T08:12:59;15.15;;;6.95;;
50858;SDS011;36826;47.514;19.056;2022-10-18T08:15:24;9.38;;;5.80;;
50858;SDS011;36826;47.514;19.056;2022-10-18T08:17:50;11.30;;;6.18;;
50858;SDS011;36826;47.514;19.056;2022-10-18T08:20:16;8.70;;;5.70;;
50858;SDS011;36826;47.514;19.056;2022-10-18T08:22:41;10.02;;;5.30;;
50858;SDS011;36826;47.514;19.056;2022-10-18T08:25:07;10.88;;;5.35;;
50858;SDS011;36826;47.514;19.056;2022-10-18T08:27:32;10.23;;;5.57;;
50858;SDS011;36826;47.514;19.056;2022-10-18T08:29:58;6.53;;;4.85;;
50858;SDS011;36826;47.514;19.056;2022-10-18T08:32:26;9.65;;;4.78;;
50858;SDS011;36826;47.514;19.056;2022-10-18T08:34:52;8.20;;;4.60;;
50858;SDS011;36826;47.514;19.056;2022-10-18T08:37:18;6.70;;;4.40;;
50858;SDS011;36826;47.514;19.056;2022-10-18T08:39:43;7.07;;;4.78;;
50858;SDS011;36826;47.514;19.056;2022-10-18T08:44:46;7.45;;;4.60;;
50858;SDS011;36826;47.514;19.056;2022-10-18T08:47:18;9.18;;;4.78;;
50858;SDS011;36826;47.514;19.056;2022-10-18T08:49:50;8.57;;;4.78;;
50858;SDS011;36826;47.514;19.056;2022-10-18T08:55:17;6.22;;;4.28;;
50858;SDS011;36826;47.514;19.056;2022-10-18T08:58:13;6.43;;;4.30;;
50858;SDS011;36826;47.514;19.056;2022-10-18T09:00:43;8.85;;;4.43;;
50858;SDS011;36826;47.514;19.056;2022-10-18T09:03:29;6.18;;;4.13;;
50858;SDS011;36826;47.514;19.056;2022-10-18T09:06:12;6.15;;;4.22;;
50858;SDS011;36826;47.514;19.056;2022-10-18T09:09:19;5.75;;;4.20;;
50858;SDS011;36826;47.514;19.056;2022-10-18T09:14:36;6.10;;;3.72;;
50858;SDS011;36826;47.514;19.056;2022-10-18T09:22:42;4.88;;;3.60;;
50858;SDS011;36826;47.514;19.056;2022-10-18T09:25:20;6.35;;;3.90;;
50858;SDS011;36826;47.514;19.056;2022-10-18T09:28:15;5.90;;;3.95;;
50858;SDS011;36826;47.514;19.056;2022-10-18T09:33:49;5.28;;;3.80;;
50858;SDS011;36826;47.514;19.056;2022-10-18T09:36:24;4.32;;;3.40;;
50858;SDS011;36826;47.514;19.056;2022-10-18T09:38:58;5.72;;;3.70;;
50858;SDS011;36826;47.514;19.056;2022-10-18T09:41:29;5.57;;;3.80;;
50858;SDS011;36826;47.514;19.056;2022-10-18T09:44:01;4.88;;;3.60;;
50858;SDS011;36826;47.514;19.056;2022-10-18T09:46:32;4.63;;;3.53;;
50858;SDS011;36826;47.514;19.056;2022-10-18T09:49:03;9.45;;;4.88;;
50858;SDS011;36826;47.514;19.056;2022-10-18T09:51:32;7.55;;;4.05;;
50858;SDS011;36826;47.514;19.056;2022-10-18T09:56:40;9.30;;;4.60;;
50858;SDS011;36826;47.514;19.056;2022-10-18T09:59:53;8.23;;;4.55;;
50858;SDS011;36826;47.514;19.056;2022-10-18T10:02:05;6.53;;;4.15;;
50858;SDS011;36826;47.514;19.056;2022-10-18T10:04:36;5.53;;;4.10;;
50858;SDS011;36826;47.514;19.056;2022-10-18T10:07:01;7.68;;;4.00;;
50858;SDS011;36826;47.514;19.056;2022-10-18T10:09:39;5.90;;;3.80;;
50858;SDS011;36826;47.514;19.056;2022-10-18T10:12:32;5.82;;;3.88;;
50858;SDS011;36826;47.514;19.056;2022-10-18T10:15:12;8.10;;;3.55;;
50858;SDS011;36826;47.514;19.056;2022-10-18T10:17:40;11.02;;;4.35;;
50858;SDS011;36826;47.514;19.056;2022-10-18T10:20:49;8.48;;;3.90;;
50858;SDS011;36826;47.514;19.056;2022-10-18T10:22:55;13.02;;;4.70;;
50858;SDS011;36826;47.514;19.056;2022-10-18T10:25:40;6.55;;;4.22;;
50858;SDS011;36826;47.514;19.056;2022-10-18T10:28:14;10.57;;;4.25;;
50858;SDS011;36826;47.514;19.056;2022-10-18T10:30:42;7.22;;;3.97;;
50858;SDS011;36826;47.514;19.056;2022-10-18T10:33:27;7.93;;;3.63;;
50858;SDS011;36826;47.514;19.056;2022-10-18T10:36:15;6.38;;;3.40;;
50858;SDS011;36826;47.514;19.056;2022-10-18T10:38:42;5.90;;;3.80;;
50858;SDS011;36826;47.514;19.056;2022-10-18T10:41:20;8.18;;;3.78;;
50858;SDS011;36826;47.514;19.056;2022-10-18T10:43:48;7.63;;;3.50;;
50858;SDS011;36826;47.514;19.056;2022-10-18T10:46:18;5.15;;;3.50;;
50858;SDS011;36826;47.514;19.056;2022-10-18T10:51:11;6.10;;;3.40;;
50858;SDS011;36826;47.514;19.056;2022-10-18T10:58:59;6.18;;;3.38;;
50858;SDS011;36826;47.514;19.056;2022-10-18T11:01:46;6.53;;;3.30;;
50858;SDS011;36826;47.514;19.056;2022-10-18T11:04:30;8.30;;;3.10;;
50858;SDS011;36826;47.514;19.056;2022-10-18T11:06:59;6.97;;;3.20;;
50858;SDS011;36826;47.514;19.056;2022-10-18T11:09:32;4.72;;;3.15;;
50858;SDS011;36826;47.514;19.056;2022-10-18T11:22:58;5.47;;;3.33;;
50858;SDS011;36826;47.514;19.056;2022-10-18T11:33:38;4.70;;;2.90;;
50858;SDS011;36826;47.514;19.056;2022-10-18T11:36:15;9.10;;;3.30;;
50858;SDS011;36826;47.514;19.056;2022-10-18T11:38:55;8.73;;;3.05;;
50858;SDS011;36826;47.514;19.056;2022-10-18T11:44:08;5.90;;;3.20;;
50858;SDS011;36826;47.514;19.056;2022-10-18T11:46:50;4.85;;;2.92;;
50858;SDS011;36826;47.514;19.056;2022-10-18T11:49:29;7.90;;;3.17;;
50858;SDS011;36826;47.514;19.056;2022-10-18T11:54:28;4.07;;;3.00;;
50858;SDS011;36826;47.514;19.056;2022-10-18T12:05:42;5.57;;;3.05;;
50858;SDS011;36826;47.514;19.056;2022-10-18T12:08:12;4.40;;;2.83;;
50858;SDS011;36826;47.514;19.056;2022-10-18T12:10:41;6.10;;;3.00;;
50858;SDS011;36826;47.514;19.056;2022-10-18T12:13:12;5.57;;;3.10;;
50858;SDS011;36826;47.514;19.056;2022-10-18T12:15:53;5.85;;;3.22;;
50858;SDS011;36826;47.514;19.056;2022-10-18T12:18:20;6.00;;;2.97;;
50858;SDS011;36826;47.514;19.056;2022-10-18T12:20:53;5.05;;;3.10;;
50858;SDS011;36826;47.514;19.056;2022-10-18T12:26:09;8.13;;;3.03;;
50858;SDS011;36826;47.514;19.056;2022-10-18T12:33:54;4.28;;;2.67;;
50858;SDS011;36826;47.514;19.056;2022-10-18T12:41:24;5.90;;;2.83;;
50858;SDS011;36826;47.514;19.056;2022-10-18T12:44:02;4.00;;;2.53;;
50858;SDS011;36826;47.514;19.056;2022-10-18T12:46:47;7.10;;;2.90;;
50858;SDS011;36826;47.514;19.056;2022-10-18T12:49:16;6.60;;;2.80;;
50858;SDS011;36826;47.514;19.056;2022-10-18T12:51:52;6.47;;;2.92;;
50858;SDS011;36826;47.514;19.056;2022-10-18T12:54:21;6.32;;;2.85;;
50858;SDS011;36826;47.514;19.056;2022-10-18T12:56:50;5.72;;;2.50;;
50858;SDS011;36826;47.514;19.056;2022-10-18T13:09:32;4.00;;;2.47;;
50858;SDS011;36826;47.514;19.056;2022-10-18T13:14:52;5.50;;;2.47;;
50858;SDS011;36826;47.514;19.056;2022-10-18T13:31:25;6.80;;;2.40;;
50858;SDS011;36826;47.514;19.056;2022-10-18T13:34:35;6.55;;;2.40;;
50858;SDS011;36826;47.514;19.056;2022-10-18T13:37:00;6.07;;;2.45;;
50858;SDS011;36826;47.514;19.056;2022-10-18T13:39:28;4.93;;;2.60;;
50858;SDS011;36826;47.514;19.056;2022-10-18T13:44:31;3.90;;;2.20;;
50858;SDS011;36826;47.514;19.056;2022-10-18T14:06:37;3.58;;;1.95;;
50858;SDS011;36826;47.514;19.056;2022-10-18T14:11:43;4.97;;;2.10;;
50858;SDS011;36826;47.514;19.056;2022-10-18T14:19:35;3.20;;;2.20;;
50858;SDS011;36826;47.514;19.056;2022-10-18T14:22:09;3.65;;;2.22;;
50858;SDS011;36826;47.514;19.056;2022-10-18T14:24:42;3.80;;;2.30;;
50858;SDS011;36826;47.514;19.056;2022-10-18T14:27:16;4.93;;;2.00;;
50858;SDS011;36826;47.514;19.056;2022-10-18T14:29:46;3.45;;;2.10;;
50858;SDS011;36826;47.514;19.056;2022-10-18T14:32:26;7.00;;;2.40;;
50858;SDS011;36826;47.514;19.056;2022-10-18T14:34:54;4.70;;;2.20;;
50858;SDS011;36826;47.514;19.056;2022-10-18T14:37:27;6.18;;;2.20;;
50858;SDS011;36826;47.514;19.056;2022-10-18T14:39:57;4.32;;;2.40;;
50858;SDS011;36826;47.514;19.056;2022-10-18T14:42:23;4.22;;;1.92;;
50858;SDS011;36826;47.514;19.056;2022-10-18T14:44:49;4.13;;;1.88;;
50858;SDS011;36826;47.514;19.056;2022-10-18T14:47:21;8.40;;;2.42;;
50858;SDS011;36826;47.514;19.056;2022-10-18T14:49:50;5.28;;;2.20;;
50858;SDS011;36826;47.514;19.056;2022-10-18T14:52:25;7.88;;;2.20;;
50858;SDS011;36826;47.514;19.056;2022-10-18T14:54:54;6.50;;;2.30;;
50858;SDS011;36826;47.514;19.056;2022-10-18T14:57:32;5.28;;;2.25;;
50858;SDS011;36826;47.514;19.056;2022-10-18T15:00:01;6.00;;;2.22;;
50858;SDS011;36826;47.514;19.056;2022-10-18T15:02:49;5.70;;;2.20;;
50858;SDS011;36826;47.514;19.056;2022-10-18T15:07:45;8.02;;;2.50;;
50858;SDS011;36826;47.514;19.056;2022-10-18T15:10:15;7.63;;;2.13;;
50858;SDS011;36826;47.514;19.056;2022-10-18T15:12:44;6.25;;;2.30;;
50858;SDS011;36826;47.514;19.056;2022-10-18T15:15:20;7.68;;;2.58;;
50858;SDS011;36826;47.514;19.056;2022-10-18T15:17:48;9.18;;;2.50;;
50858;SDS011;36826;47.514;19.056;2022-10-18T15:22:42;10.75;;;2.40;;
50858;SDS011;36826;47.514;19.056;2022-10-18T15:25:17;11.50;;;2.67;;
50858;SDS011;36826;47.514;19.056;2022-10-18T15:27:55;9.13;;;2.70;;
50858;SDS011;36826;47.514;19.056;2022-10-18T15:30:26;8.88;;;2.65;;
50858;SDS011;36826;47.514;19.056;2022-10-18T15:33:00;7.78;;;2.50;;
50858;SDS011;36826;47.514;19.056;2022-10-18T15:35:29;7.75;;;2.60;;
50858;SDS011;36826;47.514;19.056;2022-10-18T15:37:57;8.57;;;2.35;;
50858;SDS011;36826;47.514;19.056;2022-10-18T15:42:53;11.13;;;2.53;;
50858;SDS011;36826;47.514;19.056;2022-10-18T15:45:26;8.40;;;2.35;;
50858;SDS011;36826;47.514;19.056;2022-10-18T15:50:48;12.25;;;2.33;;
50858;SDS011;36826;47.514;19.056;2022-10-18T15:58:44;11.57;;;2.45;;
50858;SDS011;36826;47.514;19.056;2022-10-18T16:03:42;17.70;;;2.80;;
50858;SDS011;36826;47.514;19.056;2022-10-18T16:06:10;13.50;;;2.50;;
50858;SDS011;36826;47.514;19.056;2022-10-18T16:08:38;23.70;;;2.88;;
50858;SDS011;36826;47.514;19.056;2022-10-18T16:11:16;13.40;;;2.90;;
50858;SDS011;36826;47.514;19.056;2022-10-18T16:13:48;15.85;;;2.35;;
50858;SDS011;36826;47.514;19.056;2022-10-18T16:16:18;13.75;;;2.70;;
50858;SDS011;36826;47.514;19.056;2022-10-18T16:18:46;13.05;;;2.80;;
50858;SDS011;36826;47.514;19.056;2022-10-18T16:21:16;16.85;;;2.60;;
50858;SDS011;36826;47.514;19.056;2022-10-18T16:26:15;12.90;;;2.72;;
50858;SDS011;36826;47.514;19.056;2022-10-18T16:28:42;13.73;;;2.30;;
50858;SDS011;36826;47.514;19.056;2022-10-18T16:31:09;18.48;;;2.97;;
50858;SDS011;36826;47.514;19.056;2022-10-18T16:33:44;15.82;;;2.65;;
50858;SDS011;36826;47.514;19.056;2022-10-18T16:36:12;12.68;;;3.00;;
50858;SDS011;36826;47.514;19.056;2022-10-18T16:38:42;19.92;;;2.70;;
50858;SDS011;36826;47.514;19.056;2022-10-18T16:41:09;16.20;;;2.95;;
50858;SDS011;36826;47.514;19.056;2022-10-18T16:43:35;12.80;;;2.97;;
50858;SDS011;36826;47.514;19.056;2022-10-18T16:46:01;13.90;;;2.85;;
50858;SDS011;36826;47.514;19.056;2022-10-18T16:48:27;10.45;;;3.10;;
50858;SDS011;36826;47.514;19.056;2022-10-18T16:50:54;13.23;;;2.72;;
50858;SDS011;36826;47.514;19.056;2022-10-18T16:53:20;17.17;;;3.00;;
50858;SDS011;36826;47.514;19.056;2022-10-18T16:55:50;13.57;;;2.92;;
50858;SDS011;36826;47.514;19.056;2022-10-18T16:58:19;18.63;;;3.42;;
50858;SDS011;36826;47.514;19.056;2022-10-18T17:00:46;20.33;;;3.10;;
50858;SDS011;36826;47.514;19.056;2022-10-18T17:03:12;16.48;;;3.30;;
50858;SDS011;36826;47.514;19.056;2022-10-18T17:05:38;15.68;;;2.70;;
50858;SDS011;36826;47.514;19.056;2022-10-18T17:08:05;8.65;;;2.85;;
50858;SDS011;36826;47.514;19.056;2022-10-18T17:10:31;13.23;;;3.67;;
50858;SDS011;36826;47.514;19.056;2022-10-18T17:12:57;14.90;;;3.80;;
50858;SDS011;36826;47.514;19.056;2022-10-18T17:15:23;19.05;;;3.45;;
50858;SDS011;36826;47.514;19.056;2022-10-18T17:17:48;12.88;;;3.55;;
50858;SDS011;36826;47.514;19.056;2022-10-18T17:20:19;16.10;;;3.60;;
50858;SDS011;36826;47.514;19.056;2022-10-18T17:22:48;14.68;;;3.63;;
50858;SDS011;36826;47.514;19.056;2022-10-18T17:25:14;16.55;;;3.03;;
50858;SDS011;36826;47.514;19.056;2022-10-18T17:27:41;18.15;;;3.13;;
50858;SDS011;36826;47.514;19.056;2022-10-18T17:30:07;11.82;;;2.60;;
50858;SDS011;36826;47.514;19.056;2022-10-18T17:32:33;19.00;;;3.42;;
50858;SDS011;36826;47.514;19.056;2022-10-18T17:34:58;18.17;;;3.45;;
50858;SDS011;36826;47.514;19.056;2022-10-18T17:37:24;10.32;;;2.75;;
50858;SDS011;36826;47.514;19.056;2022-10-18T17:39:49;13.85;;;2.90;;
50858;SDS011;36826;47.514;19.056;2022-10-18T17:42:15;13.70;;;3.60;;
50858;SDS011;36826;47.514;19.056;2022-10-18T17:44:41;8.95;;;3.25;;
50858;SDS011;36826;47.514;19.056;2022-10-18T17:47:07;10.48;;;3.40;;
50858;SDS011;36826;47.514;19.056;2022-10-18T17:49:33;11.88;;;3.13;;